Time;durP1;ratioP1;P1;durP2;ratioP2;P2;SDS_P1;SDS_P2;PMS_P1;PMS_P2;Temp;Humidity;BMP_temperature;BMP_pressure;BME280_temperature;BME280_humidity;BME280_pressure;Samples;Min_cycle;Max_cycle;Signal;HPM_P1;HPM_P2
2024/02/26 00:04:38;;;;;;;15.25;4.18;;;;;;;;;;10535782;28;20043;-75
2024/02/26 00:09:51;;;;;;;4.20;1.85;;;;;;;;;;10520428;28;20142;-75
2024/02/26 00:15:02;;;;;;;3.03;1.13;;;;;;;;;;10536018;27;20048;-74
2024/02/26 00:20:11;;;;;;;1.92;1.33;;;;;;;;;;10557372;28;20047;-75
2024/02/26 00:25:14;;;;;;;2.25;1.98;;;;;;;;;;10543705;27;20134;-74
2024/02/26 00:30:43;;;;;;;3.80;1.98;;;;;;;;;;10530747;28;20047;-74
2024/02/26 00:35:55;;;;;;;2.92;1.20;;;;;;;;;;10525496;27;20039;-73
2024/02/26 00:41:01;;;;;;;1.83;1.25;;;;;;;;;;10557022;28;20047;-74
2024/02/26 00:46:07;;;;;;;4.68;2.05;;;;;;;;;;10548985;27;20027;-74
2024/02/26 00:51:22;;;;;;;3.67;1.75;;;;;;;;;;10553450;27;20513;-76
2024/02/26 00:56:33;;;;;;;2.78;1.45;;;;;;;;;;10552702;27;20040;-75
2024/02/26 01:01:41;;;;;;;3.50;2.00;;;;;;;;;;10556510;27;20050;-75
2024/02/26 01:06:48;;;;;;;3.47;1.27;;;;;;;;;;10557506;27;20497;-75
2024/02/26 01:11:53;;;;;;;2.42;1.00;;;;;;;;;;10554246;27;20062;-75
2024/02/26 01:17:07;;;;;;;1.63;1.20;;;;;;;;;;10538664;27;20038;-74
2024/02/26 01:22:21;;;;;;;2.72;1.50;;;;;;;;;;10563489;27;20454;-75
2024/02/26 01:27:27;;;;;;;3.28;1.48;;;;;;;;;;10556245;27;20059;-74
2024/02/26 01:32:33;;;;;;;1.88;1.13;;;;;;;;;;10533849;28;20526;-73
2024/02/26 01:37:49;;;;;;;4.03;1.95;;;;;;;;;;10561446;27;20048;-73
2024/02/26 01:42:54;;;;;;;2.63;1.55;;;;;;;;;;10559219;27;20055;-74
2024/02/26 01:48:02;;;;;;;3.88;1.83;;;;;;;;;;10536218;28;20044;-73
2024/02/26 01:53:11;;;;;;;4.65;1.70;;;;;;;;;;10554319;27;20035;-73
2024/02/26 01:58:17;;;;;;;2.22;1.23;;;;;;;;;;10527760;28;20051;-74
2024/02/26 02:03:24;;;;;;;2.80;1.17;;;;;;;;;;10531582;27;20097;-75
2024/02/26 02:08:51;;;;;;;1.88;1.40;;;;;;;;;;10553750;27;20587;-74
2024/02/26 02:14:07;;;;;;;1.33;0.80;;;;;;;;;;10543444;27;20129;-74
2024/02/26 02:19:14;;;;;;;1.20;1.02;;;;;;;;;;10552391;27;20072;-74
2024/02/26 02:24:23;;;;;;;4.20;1.70;;;;;;;;;;10546058;28;20071;-74
2024/02/26 02:29:27;;;;;;;1.58;1.17;;;;;;;;;;10557845;27;20624;-76
2024/02/26 02:34:36;;;;;;;3.35;1.80;;;;;;;;;;10544879;27;20035;-74
2024/02/26 02:39:45;;;;;;;;;;;;;;;;;;10541417;27;20053;-76
2024/02/26 02:44:58;;;;;;;1.88;1.10;;;;;;;;;;10520106;28;20360;-73
2024/02/26 02:50:02;;;;;;;2.15;1.35;;;;;;;;;;10540366;28;20136;-74
2024/02/26 02:55:11;;;;;;;5.18;1.65;;;;;;;;;;10525194;27;20664;-74
2024/02/26 03:00:19;;;;;;;2.83;1.40;;;;;;;;;;10540587;28;20044;-73
2024/02/26 03:05:26;;;;;;;2.00;1.47;;;;;;;;;;10543021;27;20102;-76
2024/02/26 03:10:34;;;;;;;2.58;1.00;;;;;;;;;;10525436;27;20044;-77
2024/02/26 03:15:44;;;;;;;3.55;1.35;;;;;;;;;;10549281;28;20056;-76
2024/02/26 03:20:50;;;;;;;3.65;1.67;;;;;;;;;;10539919;28;20056;-74
2024/02/26 03:25:57;;;;;;;2.00;1.48;;;;;;;;;;10540929;28;20035;-77
2024/02/26 03:31:16;;;;;;;2.85;1.52;;;;;;;;;;10550139;28;20043;-76
2024/02/26 03:36:23;;;;;;;0.38;0.38;;;;;;;;;;10530801;28;21032;-78
2024/02/26 03:41:31;;;;;;;1.05;0.68;;;;;;;;;;10528355;28;20039;-74
2024/02/26 03:46:43;;;;;;;3.63;1.40;;;;;;;;;;10518728;27;20423;-74
2024/02/26 03:51:57;;;;;;;1.90;0.85;;;;;;;;;;10552612;27;20054;-74
2024/02/26 03:57:05;;;;;;;2.85;1.60;;;;;;;;;;10562641;27;20052;-75
2024/02/26 04:02:25;;;;;;;2.85;1.80;;;;;;;;;;10541472;28;20043;-74
2024/02/26 04:07:33;;;;;;;1.85;1.02;;;;;;;;;;10531808;28;20214;-74
2024/02/26 04:12:39;;;;;;;2.88;1.60;;;;;;;;;;10553757;28;20071;-75
2024/02/26 04:17:45;;;;;;;2.65;1.20;;;;;;;;;;10541401;27;20040;-75
2024/02/26 04:22:49;;;;;;;0.68;0.57;;;;;;;;;;10535535;27;20411;-75
2024/02/26 04:27:54;;;;;;;2.85;1.20;;;;;;;;;;10556676;27;20043;-74
2024/02/26 04:33:09;;;;;;;0.73;0.73;;;;;;;;;;10558587;28;20053;-74
2024/02/26 04:38:16;;;;;;;2.03;1.15;;;;;;;;;;10527044;27;20081;-74
2024/02/26 04:43:21;;;;;;;2.70;1.50;;;;;;;;;;10561908;27;20382;-75
2024/02/26 04:48:26;;;;;;;1.42;0.82;;;;;;;;;;10553344;28;20105;-74
2024/02/26 04:53:30;;;;;;;0.60;0.57;;;;;;;;;;10561942;27;20043;-74
2024/02/26 04:58:36;;;;;;;1.55;0.80;;;;;;;;;;10528750;28;20674;-73
2024/02/26 05:03:53;;;;;;;2.57;0.90;;;;;;;;;;10542041;28;20131;-74
2024/02/26 05:08:56;;;;;;;2.58;1.15;;;;;;;;;;10510595;27;20048;-74
2024/02/26 05:14:06;;;;;;;1.58;0.98;;;;;;;;;;10530601;27;20435;-74
2024/02/26 05:19:14;;;;;;;3.00;1.13;;;;;;;;;;10545582;27;20040;-74
2024/02/26 05:24:18;;;;;;;1.77;0.95;;;;;;;;;;10531705;28;20397;-74
2024/02/26 05:29:25;;;;;;;1.42;1.25;;;;;;;;;;10548354;27;20062;-74
2024/02/26 05:34:47;;;;;;;2.03;1.17;;;;;;;;;;10529089;28;20174;-75
2024/02/26 05:39:55;;;;;;;1.55;1.00;;;;;;;;;;10532135;27;20530;-75
2024/02/26 05:45:06;;;;;;;2.75;1.23;;;;;;;;;;10522400;27;20157;-75
2024/02/26 05:50:10;;;;;;;3.20;1.20;;;;;;;;;;10549286;28;20127;-74
2024/02/26 05:55:19;;;;;;;4.47;1.33;;;;;;;;;;10548592;27;20047;-75
2024/02/26 06:00:23;;;;;;;5.25;1.55;;;;;;;;;;10548818;27;20047;-74
2024/02/26 06:05:29;;;;;;;4.60;1.60;;;;;;;;;;10528913;28;20143;-75
2024/02/26 06:10:39;;;;;;;5.20;1.60;;;;;;;;;;10554940;27;20043;-74
2024/02/26 06:15:44;;;;;;;3.45;1.63;;;;;;;;;;10514732;28;20751;-74
2024/02/26 06:20:49;;;;;;;3.20;1.25;;;;;;;;;;10536802;28;20048;-74
2024/02/26 06:25:54;;;;;;;;;;;;;;;;;;10530674;28;20050;-74
2024/02/26 06:31:09;;;;;;;2.92;1.55;;;;;;;;;;10550851;28;19919;-73
2024/02/26 06:36:13;;;;;;;3.83;1.70;;;;;;;;;;10540797;27;20040;-74
2024/02/26 06:41:27;;;;;;;4.22;1.90;;;;;;;;;;10539953;27;20903;-75
2024/02/26 06:46:39;;;;;;;3.28;1.70;;;;;;;;;;10525644;27;20051;-76
2024/02/26 06:51:50;;;;;;;4.00;1.83;;;;;;;;;;10541951;28;20048;-75
2024/02/26 06:56:53;;;;;;;8.30;3.00;;;;;;;;;;10539107;27;20526;-76
2024/02/26 07:01:57;;;;;;;;;;;;;;;;;;10544361;28;20031;-74
2024/02/26 07:07:06;;;;;;;2.93;1.60;;;;;;;;;;10512663;27;20388;-73
2024/02/26 07:12:13;;;;;;;3.80;1.60;;;;;;;;;;10530003;28;20416;-74
2024/02/26 07:17:19;;;;;;;4.55;1.75;;;;;;;;;;10542579;28;20203;-75
2024/02/26 07:22:27;;;;;;;4.28;1.60;;;;;;;;;;10555320;27;20039;-74
2024/02/26 07:27:35;;;;;;;3.53;1.70;;;;;;;;;;10553498;27;20135;-73
2024/02/26 07:32:41;;;;;;;3.22;1.83;;;;;;;;;;10547954;27;20693;-73
2024/02/26 07:37:54;;;;;;;3.08;1.80;;;;;;;;;;10538697;27;20154;-74
2024/02/26 07:43:01;;;;;;;3.38;1.90;;;;;;;;;;10554004;27;20118;-73
2024/02/26 07:48:08;;;;;;;3.67;1.70;;;;;;;;;;10528099;27;20048;-74
2024/02/26 07:53:19;;;;;;;3.83;1.75;;;;;;;;;;10536540;27;20574;-74
2024/02/26 07:58:24;;;;;;;3.92;1.98;;;;;;;;;;10545251;27;20174;-76
2024/02/26 08:03:31;;;;;;;3.60;1.70;;;;;;;;;;10555777;27;20130;-75
2024/02/26 08:08:49;;;;;;;3.10;1.58;;;;;;;;;;10537993;27;20040;-75
2024/02/26 08:13:58;;;;;;;6.70;2.17;;;;;;;;;;10562107;27;20219;-73
2024/02/26 08:19:14;;;;;;;3.00;1.60;;;;;;;;;;10535801;27;20238;-74
2024/02/26 08:24:27;;;;;;;3.78;2.13;;;;;;;;;;10549617;27;20043;-74
2024/02/26 08:29:33;;;;;;;6.95;1.85;;;;;;;;;;10542449;27;20156;-75
2024/02/26 08:34:37;;;;;;;5.97;1.80;;;;;;;;;;10551101;27;20398;-74
2024/02/26 08:39:45;;;;;;;4.20;1.77;;;;;;;;;;10542323;28;20713;-75
2024/02/26 08:44:49;;;;;;;3.17;1.85;;;;;;;;;;10522085;27;20040;-74
2024/02/26 08:50:09;;;;;;;5.97;1.85;;;;;;;;;;10536361;28;20036;-75
2024/02/26 08:55:24;;;;;;;4.90;1.90;;;;;;;;;;10548535;27;20058;-73
2024/02/26 09:00:42;;;;;;;4.00;1.90;;;;;;;;;;10535256;27;20040;-75
2024/02/26 09:05:52;;;;;;;3.03;1.80;;;;;;;;;;10551744;28;20120;-76
2024/02/26 09:11:00;;;;;;;5.63;1.90;;;;;;;;;;10526032;28;20438;-74
2024/02/26 09:16:05;;;;;;;3.92;1.88;;;;;;;;;;10544811;28;20039;-74
2024/02/26 09:21:13;;;;;;;2.97;1.75;;;;;;;;;;10540851;28;20466;-75
2024/02/26 09:26:19;;;;;;;4.85;1.83;;;;;;;;;;10528916;27;20059;-74
2024/02/26 09:31:27;;;;;;;3.17;1.85;;;;;;;;;;10542054;28;20449;-74
2024/02/26 09:36:33;;;;;;;3.30;1.52;;;;;;;;;;10542442;27;20138;-74
2024/02/26 09:47:01;;;;;;;3.53;1.92;;;;;;;;;;10532147;28;20125;-75
2024/02/26 09:52:06;;;;;;;5.40;2.47;;;;;;;;;;10527350;27;20112;-75
2024/02/26 09:57:24;;;;;;;4.78;2.20;;;;;;;;;;10545443;27;20513;-75
2024/02/26 10:02:29;;;;;;;4.03;2.25;;;;;;;;;;10546368;27;20453;-75
2024/02/26 10:07:36;;;;;;;7.45;2.40;;;;;;;;;;10539412;27;20511;-76
2024/02/26 10:12:49;;;;;;;2.92;1.73;;;;;;;;;;10525162;28;20518;-75
2024/02/26 10:17:59;;;;;;;2.90;1.80;;;;;;;;;;10538795;27;20125;-74
2024/02/26 10:23:17;;;;;;;3.33;1.60;;;;;;;;;;10527720;28;20400;-75
2024/02/26 10:28:23;;;;;;;3.10;1.90;;;;;;;;;;10517133;28;20051;-75
2024/02/26 10:33:30;;;;;;;3.28;1.50;;;;;;;;;;10533358;27;20634;-74
2024/02/26 10:38:38;;;;;;;5.07;1.50;;;;;;;;;;10544838;27;20052;-74
2024/02/26 10:43:52;;;;;;;3.85;1.52;;;;;;;;;;10517336;28;20054;-74
2024/02/26 10:49:03;;;;;;;3.35;1.30;;;;;;;;;;10535715;28;20571;-74
2024/02/26 10:54:10;;;;;;;3.00;1.52;;;;;;;;;;10555259;27;20122;-75
2024/02/26 10:59:20;;;;;;;2.75;1.08;;;;;;;;;;10536499;27;20535;-74
2024/02/26 11:04:27;;;;;;;1.33;1.10;;;;;;;;;;10532453;28;20173;-74
2024/02/26 11:09:35;;;;;;;1.73;1.20;;;;;;;;;;10510451;28;20101;-74
2024/02/26 11:15:03;;;;;;;2.72;1.27;;;;;;;;;;10513629;28;20047;-74
2024/02/26 11:20:16;;;;;;;1.17;1.10;;;;;;;;;;10533256;28;20044;-74
2024/02/26 11:25:25;;;;;;;2.58;1.60;;;;;;;;;;10518294;28;20070;-75
2024/02/26 11:30:38;;;;;;;1.95;1.42;;;;;;;;;;10528920;28;20047;-75
2024/02/26 11:36:07;;;;;;;1.55;1.30;;;;;;;;;;10520746;28;20047;-74
2024/02/26 11:41:14;;;;;;;2.60;1.33;;;;;;;;;;10557890;27;20063;-75
2024/02/26 11:46:26;;;;;;;1.50;1.33;;;;;;;;;;10538470;28;20245;-76
2024/02/26 11:51:37;;;;;;;3.05;1.30;;;;;;;;;;10517973;28;20059;-75
2024/02/26 11:56:50;;;;;;;2.05;1.45;;;;;;;;;;10519705;28;20043;-74
2024/02/26 12:01:57;;;;;;;2.80;1.20;;;;;;;;;;10530466;28;20649;-74
2024/02/26 12:07:08;;;;;;;2.80;1.40;;;;;;;;;;10520108;28;20036;-75
2024/02/26 12:12:14;;;;;;;2.75;1.60;;;;;;;;;;10544674;27;20055;-75
2024/02/26 12:17:20;;;;;;;1.80;1.30;;;;;;;;;;10523916;28;20051;-75
2024/02/26 12:22:42;;;;;;;1.50;1.38;;;;;;;;;;10535511;27;20044;-74
2024/02/26 12:27:51;;;;;;;2.75;1.55;;;;;;;;;;10547572;28;20069;-73
2024/02/26 12:33:00;;;;;;;1.92;1.00;;;;;;;;;;10537211;28;20067;-75
2024/02/26 12:38:17;;;;;;;3.00;1.90;;;;;;;;;;10539978;27;20481;-75
2024/02/26 12:43:22;;;;;;;3.22;1.90;;;;;;;;;;10543375;28;20148;-75
2024/02/26 12:48:34;;;;;;;3.45;1.67;;;;;;;;;;10544712;27;20516;-75
2024/02/26 12:53:40;;;;;;;2.83;2.08;;;;;;;;;;10545324;27;20039;-75
2024/02/26 12:58:48;;;;;;;3.20;2.20;;;;;;;;;;10542515;28;20044;-76
2024/02/26 13:03:58;;;;;;;2.15;1.95;;;;;;;;;;10543229;27;20113;-76
2024/02/26 13:09:14;;;;;;;5.13;2.10;;;;;;;;;;10542478;28;20490;-76
2024/02/26 13:14:21;;;;;;;3.60;1.60;;;;;;;;;;10540522;28;20117;-75
2024/02/26 13:19:30;;;;;;;3.03;2.00;;;;;;;;;;10529972;28;20106;-75
2024/02/26 13:24:37;;;;;;;4.25;2.33;;;;;;;;;;10522581;27;20058;-75
2024/02/26 13:30:13;;;;;;;1.58;1.48;;;;;;;;;;10554105;27;20085;-76
2024/02/26 13:35:22;;;;;;;3.67;2.45;;;;;;;;;;10548930;28;20047;-75
2024/02/26 13:40:27;;;;;;;4.35;1.70;;;;;;;;;;10524589;28;20048;-75
2024/02/26 13:45:39;;;;;;;1.38;0.98;;;;;;;;;;10541370;28;20043;-74
2024/02/26 13:50:55;;;;;;;1.60;1.20;;;;;;;;;;10521830;27;20127;-75
2024/02/26 13:56:14;;;;;;;3.55;1.00;;;;;;;;;;10507590;27;20051;-75
2024/02/26 14:01:19;;;;;;;1.38;0.80;;;;;;;;;;10519690;27;20525;-75
2024/02/26 14:06:30;;;;;;;1.25;0.98;;;;;;;;;;10537274;27;20101;-75
2024/02/26 14:11:37;;;;;;;1.70;0.93;;;;;;;;;;10539217;27;20086;-77
2024/02/26 14:17:03;;;;;;;2.30;1.20;;;;;;;;;;10541658;28;20241;-76
2024/02/26 14:22:10;;;;;;;2.45;1.25;;;;;;;;;;10545373;27;20409;-76
2024/02/26 14:27:15;;;;;;;2.38;1.13;;;;;;;;;;10539329;27;20048;-76
2024/02/26 14:32:34;;;;;;;2.25;1.33;;;;;;;;;;10532521;28;20144;-76
2024/02/26 14:37:43;;;;;;;3.63;1.63;;;;;;;;;;10502620;28;20479;-75
2024/02/26 14:42:54;;;;;;;2.53;1.40;;;;;;;;;;10520572;28;20177;-75
2024/02/26 14:48:03;;;;;;;3.58;1.50;;;;;;;;;;10535971;28;20040;-76
2024/02/26 14:53:14;;;;;;;3.72;1.70;;;;;;;;;;10506017;28;20435;-75
2024/02/26 14:58:32;;;;;;;2.75;1.65;;;;;;;;;;10534875;28;20558;-75
2024/02/26 15:03:36;;;;;;;3.15;1.55;;;;;;;;;;10520956;27;20132;-75
2024/02/26 15:08:44;;;;;;;2.97;1.50;;;;;;;;;;10526530;28;20867;-75
2024/02/26 15:13:50;;;;;;;2.75;1.33;;;;;;;;;;10551870;27;20065;-74
2024/02/26 15:18:56;;;;;;;2.65;1.42;;;;;;;;;;10542016;28;20056;-74
2024/02/26 15:24:21;;;;;;;1.73;1.10;;;;;;;;;;10549088;28;20369;-74
2024/02/26 15:29:28;;;;;;;3.27;1.50;;;;;;;;;;10541729;28;20550;-74
2024/02/26 15:34:33;;;;;;;3.53;1.33;;;;;;;;;;10526640;28;20040;-74
2024/02/26 15:39:42;;;;;;;2.38;1.35;;;;;;;;;;10519633;28;20044;-75
2024/02/26 15:44:53;;;;;;;1.92;1.20;;;;;;;;;;10543066;27;20039;-74
2024/02/26 15:50:03;;;;;;;3.33;1.55;;;;;;;;;;10539284;27;20135;-74
2024/02/26 15:55:16;;;;;;;4.55;2.10;;;;;;;;;;10526590;28;21477;-76
2024/02/26 16:00:24;;;;;;;2.80;1.50;;;;;;;;;;10534052;27;20525;-76
2024/02/26 16:05:41;;;;;;;6.82;1.40;;;;;;;;;;10514516;27;20043;-76
2024/02/26 16:10:50;;;;;;;2.80;1.10;;;;;;;;;;10527623;28;20047;-75
2024/02/26 16:15:59;;;;;;;3.15;1.10;;;;;;;;;;10540529;27;20054;-75
2024/02/26 16:21:03;;;;;;;1.42;1.08;;;;;;;;;;10544972;27;20397;-75
2024/02/26 16:26:10;;;;;;;4.40;1.20;;;;;;;;;;10551314;27;20094;-75
2024/02/26 16:31:20;;;;;;;2.78;1.20;;;;;;;;;;10543927;27;20098;-75
2024/02/26 16:36:28;;;;;;;3.03;1.77;;;;;;;;;;10551328;27;20051;-73
2024/02/26 16:41:46;;;;;;;3.58;1.63;;;;;;;;;;10537282;28;20044;-75
2024/02/26 16:46:51;;;;;;;6.60;1.40;;;;;;;;;;10553172;27;20110;-74
2024/02/26 16:51:58;;;;;;;3.55;1.42;;;;;;;;;;10541614;27;20135;-75
2024/02/26 16:57:03;;;;;;;3.75;1.42;;;;;;;;;;10528443;28;20044;-75
2024/02/26 17:02:06;;;;;;;2.10;1.48;;;;;;;;;;10557352;27;20043;-75
2024/02/26 17:07:10;;;;;;;;;;;;;;;;;;10528979;27;20095;-75
2024/02/26 17:12:18;;;;;;;2.67;1.60;;;;;;;;;;10543170;27;20098;-75
2024/02/26 17:17:25;;;;;;;3.80;1.85;;;;;;;;;;10560537;27;20070;-74
2024/02/26 17:27:59;;;;;;;3.95;1.95;;;;;;;;;;10531803;28;20043;-74
2024/02/26 17:33:04;;;;;;;3.25;1.58;;;;;;;;;;10541808;28;20394;-74
2024/02/26 17:38:10;;;;;;;3.83;1.80;;;;;;;;;;10531713;28;20204;-75
2024/02/26 17:43:24;;;;;;;2.67;1.60;;;;;;;;;;10542320;27;20036;-73
2024/02/26 17:48:43;;;;;;;4.47;1.75;;;;;;;;;;10546264;27;20054;-76
2024/02/26 17:53:50;;;;;;;7.90;1.90;;;;;;;;;;10543333;27;20504;-74
2024/02/26 17:59:00;;;;;;;;;;;;;;;;;;10540722;27;20158;-75
2024/02/26 18:04:12;;;;;;;4.07;1.60;;;;;;;;;;10544825;27;19932;-74
2024/02/26 18:09:20;;;;;;;5.20;2.00;;;;;;;;;;10528917;28;20048;-74
2024/02/26 18:14:28;;;;;;;4.85;2.17;;;;;;;;;;10542143;27;20040;-74
2024/02/26 18:19:36;;;;;;;5.38;2.22;;;;;;;;;;10518717;27;20051;-75
2024/02/26 18:24:43;;;;;;;5.13;2.40;;;;;;;;;;10523271;27;20135;-74
2024/02/26 18:29:54;;;;;;;3.38;2.10;;;;;;;;;;10516023;27;20036;-74
2024/02/26 18:35:28;;;;;;;5.53;1.73;;;;;;;;;;10545716;27;20039;-75
2024/02/26 18:40:35;;;;;;;9.18;2.20;;;;;;;;;;10544098;28;20047;-76
2024/02/26 18:45:44;;;;;;;4.60;2.40;;;;;;;;;;10538207;27;20133;-75
2024/02/26 18:50:48;;;;;;;4.53;1.92;;;;;;;;;;10544407;27;20043;-75
2024/02/26 18:55:55;;;;;;;6.85;2.58;;;;;;;;;;10545071;28;20196;-74
2024/02/26 19:01:00;;;;;;;4.35;2.15;;;;;;;;;;10534246;28;20040;-73
2024/02/26 19:06:10;;;;;;;5.95;2.90;;;;;;;;;;10507253;28;20040;-74
2024/02/26 19:11:19;;;;;;;7.15;2.47;;;;;;;;;;10528680;27;20127;-74
2024/02/26 19:16:27;;;;;;;6.53;2.40;;;;;;;;;;10538105;28;20062;-74
2024/02/26 19:21:33;;;;;;;7.28;2.72;;;;;;;;;;10517507;28;20059;-74
2024/02/26 19:26:42;;;;;;;5.95;2.50;;;;;;;;;;10521525;28;20043;-73
2024/02/26 19:31:46;;;;;;;5.72;2.80;;;;;;;;;;10539028;28;20040;-74
2024/02/26 19:36:54;;;;;;;6.97;2.97;;;;;;;;;;10525876;28;20044;-75
2024/02/26 19:42:10;;;;;;;8.30;2.80;;;;;;;;;;10526120;28;20040;-74
2024/02/26 19:47:23;;;;;;;6.80;2.63;;;;;;;;;;10523142;28;20048;-74
2024/02/26 19:52:29;;;;;;;7.03;3.10;;;;;;;;;;10540470;28;20101;-74
2024/02/26 19:57:54;;;;;;;8.60;3.75;;;;;;;;;;10515820;28;20139;-75
2024/02/26 20:03:10;;;;;;;6.15;2.72;;;;;;;;;;10528429;28;20036;-76
2024/02/26 20:08:17;;;;;;;8.30;3.40;;;;;;;;;;10537410;28;20040;-75
2024/02/26 20:13:27;;;;;;;6.32;3.22;;;;;;;;;;10538534;28;20040;-75
2024/02/26 20:18:36;;;;;;;6.85;2.90;;;;;;;;;;10545790;28;20036;-74
2024/02/26 20:23:40;;;;;;;7.13;3.08;;;;;;;;;;10550862;27;20127;-76
2024/02/26 20:28:49;;;;;;;8.18;3.08;;;;;;;;;;10528155;28;20040;-75
2024/02/26 20:34:05;;;;;;;6.78;3.20;;;;;;;;;;10546015;28;20047;-75
2024/02/26 20:39:19;;;;;;;7.57;3.33;;;;;;;;;;10550147;28;20067;-75
2024/02/26 20:44:31;;;;;;;7.03;3.33;;;;;;;;;;10552907;27;20044;-76
2024/02/26 20:49:41;;;;;;;9.05;3.33;;;;;;;;;;10548925;27;20413;-75
2024/02/26 20:54:49;;;;;;;5.65;2.67;;;;;;;;;;10553816;27;20146;-75
2024/02/26 21:00:00;;;;;;;5.95;2.65;;;;;;;;;;10560639;27;20052;-76
2024/02/26 21:05:09;;;;;;;3.78;2.13;;;;;;;;;;10533496;28;20435;-75
2024/02/26 21:10:15;;;;;;;4.90;2.20;;;;;;;;;;10554588;28;20063;-77
2024/02/26 21:15:18;;;;;;;;;;;;;;;;;;10533773;28;20036;-75
2024/02/26 21:20:25;;;;;;;9.05;2.58;;;;;;;;;;10536070;27;19935;-75
2024/02/26 21:25:28;;;;;;;4.80;2.22;;;;;;;;;;10545917;27;20146;-75
2024/02/26 21:30:40;;;;;;;5.18;2.55;;;;;;;;;;10540147;28;20087;-75
2024/02/26 21:35:56;;;;;;;6.50;2.88;;;;;;;;;;10537697;27;20044;-74
2024/02/26 21:41:00;;;;;;;5.35;2.33;;;;;;;;;;10533349;28;20131;-75
2024/02/26 21:46:08;;;;;;;5.90;2.13;;;;;;;;;;10564750;27;20128;-76
2024/02/26 21:51:17;;;;;;;5.28;2.63;;;;;;;;;;10554362;27;20448;-74
2024/02/26 21:56:23;;;;;;;7.43;3.22;;;;;;;;;;10550466;28;20151;-75
2024/02/26 22:01:34;;;;;;;7.18;3.05;;;;;;;;;;10533662;28;20055;-75
2024/02/26 22:06:43;;;;;;;5.22;2.45;;;;;;;;;;10551086;28;20047;-74
2024/02/26 22:11:50;;;;;;;7.45;3.00;;;;;;;;;;10532015;28;20123;-73
2024/02/26 22:16:57;;;;;;;6.63;3.47;;;;;;;;;;10561389;27;20043;-74
2024/02/26 22:22:05;;;;;;;12.70;3.70;;;;;;;;;;10549100;27;20058;-75
2024/02/26 22:27:10;;;;;;;9.05;4.22;;;;;;;;;;10563919;27;20039;-74
2024/02/26 22:32:21;;;;;;;9.90;3.60;;;;;;;;;;10529455;28;20138;-75
2024/02/26 22:37:38;;;;;;;8.95;3.70;;;;;;;;;;10544438;28;20618;-75
2024/02/26 22:42:42;;;;;;;7.97;3.13;;;;;;;;;;10541131;27;20151;-74
2024/02/26 22:47:48;;;;;;;8.88;3.97;;;;;;;;;;10523204;28;20070;-76
2024/02/26 22:53:05;;;;;;;9.23;3.40;;;;;;;;;;10558824;27;20504;-75
2024/02/26 22:58:16;;;;;;;8.02;3.20;;;;;;;;;;10523245;27;20592;-75
2024/02/26 23:03:25;;;;;;;9.25;3.80;;;;;;;;;;10536077;28;20093;-76
2024/02/26 23:08:32;;;;;;;8.23;3.40;;;;;;;;;;10537704;28;20040;-75
2024/02/26 23:13:36;;;;;;;11.55;3.85;;;;;;;;;;10516151;28;20128;-75
2024/02/26 23:18:42;;;;;;;9.05;3.50;;;;;;;;;;10539335;28;20093;-75
2024/02/26 23:24:08;;;;;;;10.88;4.05;;;;;;;;;;10526279;28;20044;-75
2024/02/26 23:29:15;;;;;;;9.35;3.92;;;;;;;;;;10509089;28;20399;-75
2024/02/26 23:34:22;;;;;;;11.02;4.75;;;;;;;;;;10520984;28;20039;-74
2024/02/26 23:39:32;;;;;;;13.32;4.22;;;;;;;;;;10525127;28;20052;-74
2024/02/26 23:44:45;;;;;;;13.85;4.50;;;;;;;;;;10542218;28;20078;-74
2024/02/26 23:49:55;;;;;;;10.90;4.97;;;;;;;;;;10536849;28;20490;-74
2024/02/26 23:55:01;;;;;;;13.93;5.32;;;;;;;;;;10520146;28;20109;-76
